Time;durP1;ratioP1;P1;durP2;ratioP2;P2;SDS_P1;SDS_P2;PMS_P1;PMS_P2;Temp;Humidity;BMP_temperature;BMP_pressure;BME280_temperature;BME280_humidity;BME280_pressure;Samples;Min_cycle;Max_cycle;Signal;HPM_P1;HPM_P2
2022/05/25 00:00:37;;;;;;;3.67;0.60;;;;;;;12.33;100.00;101125.31;4992457;28;20050;-31
2022/05/25 00:03:06;;;;;;;3.80;0.80;;;;;;;12.33;100.00;101118.88;4992595;28;20061;-26
2022/05/25 00:05:35;;;;;;;5.15;0.90;;;;;;;12.33;100.00;101124.47;4992666;28;20042;-32
2022/05/25 00:08:02;;;;;;;6.25;1.00;;;;;;;12.31;100.00;101126.75;4990839;28;20141;-35
2022/05/25 00:10:30;;;;;;;4.57;1.02;;;;;;;12.33;100.00;101124.47;4990925;28;20169;-24
2022/05/25 00:12:59;;;;;;;5.72;0.90;;;;;;;12.33;100.00;101125.31;4990887;28;20467;-30
2022/05/25 00:15:28;;;;;;;4.70;0.80;;;;;;;12.32;100.00;101120.84;4990000;28;20090;-28
2022/05/25 00:17:56;;;;;;;4.60;1.02;;;;;;;12.32;100.00;101128.41;4990662;28;20046;-28
2022/05/25 00:20:24;;;;;;;6.82;1.17;;;;;;;12.30;100.00;101128.69;4990949;28;20087;-26
2022/05/25 00:22:54;;;;;;;7.20;1.30;;;;;;;12.31;100.00;101126.75;4990427;28;20149;-35
2022/05/25 00:25:25;;;;;;;5.85;1.00;;;;;;;12.31;100.00;101126.75;4992286;28;20202;-31
2022/05/25 00:27:53;;;;;;;4.22;0.77;;;;;;;12.30;100.00;101134.31;4993209;28;20141;-34
2022/05/25 00:30:22;;;;;;;6.15;0.98;;;;;;;12.30;100.00;101130.66;4992000;28;20054;-31
2022/05/25 00:32:50;;;;;;;5.90;1.00;;;;;;;12.28;100.00;101132.94;4992499;28;20046;-28
2022/05/25 00:35:20;;;;;;;6.78;1.00;;;;;;;12.25;100.00;101123.19;4991677;28;20034;-26
2022/05/25 00:37:49;;;;;;;4.43;0.82;;;;;;;12.28;100.00;101135.72;4991495;28;20468;-28
2022/05/25 00:40:20;;;;;;;13.27;1.33;;;;;;;12.27;100.00;101126.50;4992104;28;20526;-33
2022/05/25 00:42:48;;;;;;;6.45;0.90;;;;;;;12.24;100.00;101129.91;4991898;28;20161;-30
2022/05/25 00:45:16;;;;;;;5.18;1.25;;;;;;;12.24;100.00;101143.06;4991939;28;20043;-36
2022/05/25 00:47:49;;;;;;;4.95;0.90;;;;;;;12.23;100.00;101130.22;4992361;28;20118;-29
2022/05/25 00:50:20;;;;;;;6.93;1.20;;;;;;;12.24;100.00;101140.28;4991467;28;20389;-28
2022/05/25 00:52:49;;;;;;;4.65;0.77;;;;;;;12.24;100.00;101143.06;4991971;28;20061;-28
2022/05/25 00:55:26;;;;;;;3.38;0.80;;;;;;;12.24;100.00;101137.47;4991913;28;20069;-30
2022/05/25 00:57:57;;;;;;;8.82;1.00;;;;;;;12.20;100.00;101145.63;4991386;28;20160;-26
2022/05/25 01:00:29;;;;;;;9.43;0.90;;;;;;;12.22;100.00;101139.75;4992139;28;20086;-29
2022/05/25 01:03:04;;;;;;;4.88;0.98;;;;;;;12.21;100.00;101143.66;4991942;28;20042;-35
2022/05/25 01:05:35;;;;;;;6.07;1.00;;;;;;;12.20;100.00;101147.59;4990971;28;20093;-31
2022/05/25 01:08:15;;;;;;;4.57;0.90;;;;;;;12.19;100.00;101140.38;4991764;28;20049;-31
2022/05/25 01:10:56;;;;;;;4.25;0.80;;;;;;;12.20;100.00;101142.00;4988794;28;20058;-31
2022/05/25 01:13:36;;;;;;;5.67;0.77;;;;;;;12.18;100.00;101145.13;4991627;28;20775;-36
2022/05/25 01:16:13;;;;;;;5.15;0.90;;;;;;;12.18;100.00;101144.31;4991637;28;20058;-30
2022/05/25 01:18:49;;;;;;;4.72;0.73;;;;;;;12.19;100.00;101143.16;4980292;28;20057;-28
2022/05/25 01:21:25;;;;;;;5.57;0.90;;;;;;;12.18;100.00;101142.34;4991637;28;20140;-31
2022/05/25 01:24:25;;;;;;;4.55;0.90;;;;;;;12.17;100.00;101149.06;4981126;28;20049;-32
2022/05/25 01:27:28;;;;;;;6.10;1.20;;;;;;;12.16;100.00;101138.19;4939169;28;20057;-28
2022/05/25 01:30:04;;;;;;;3.85;0.80;;;;;;;12.13;100.00;101141.56;4991369;28;20542;-25
2022/05/25 01:32:40;;;;;;;5.00;0.88;;;;;;;12.14;100.00;101143.25;4990621;28;20050;-28
2022/05/25 01:35:15;;;;;;;5.10;0.70;;;;;;;12.16;100.00;101140.97;4991236;28;20122;-30
2022/05/25 01:37:48;;;;;;;5.60;0.90;;;;;;;12.14;100.00;101143.25;4991322;28;20412;-29
2022/05/25 01:40:23;;;;;;;2.67;0.60;;;;;;;12.16;100.00;101149.38;4989402;28;20061;-31
2022/05/25 01:43:01;;;;;;;4.53;0.90;;;;;;;12.14;100.00;101146.88;4991351;28;20163;-30
2022/05/25 01:45:35;;;;;;;4.88;0.77;;;;;;;12.13;100.00;101147.16;4990965;28;20476;-25
2022/05/25 01:48:06;;;;;;;4.25;0.80;;;;;;;12.11;100.00;101147.47;4990561;28;20058;-29
2022/05/25 01:50:39;;;;;;;6.13;1.05;;;;;;;12.11;100.00;101149.44;4991261;28;20437;-30
2022/05/25 01:53:10;;;;;;;2.95;0.85;;;;;;;12.10;100.00;101154.19;4990408;28;20049;-32
2022/05/25 01:55:42;;;;;;;5.05;0.90;;;;;;;12.08;100.00;101156.47;4991129;28;20065;-27
2022/05/25 01:58:14;;;;;;;5.97;0.90;;;;;;;12.06;100.00;101159.56;4991648;28;20109;-26
2022/05/25 02:00:46;;;;;;;3.65;0.70;;;;;;;12.06;100.00;101159.56;4990482;28;20416;-34
2022/05/25 02:06:16;;;;;;;6.55;0.85;;;;;;;12.05;100.00;101171.88;4990969;28;20039;-31
2022/05/25 02:08:58;;;;;;;3.78;1.10;;;;;;;12.06;100.00;101167.13;4990381;28;20050;-35
2022/05/25 02:11:34;;;;;;;8.45;0.98;;;;;;;12.05;100.00;101168.25;4990992;28;20038;-31
2022/05/25 02:14:09;;;;;;;6.18;1.15;;;;;;;12.05;100.00;101173.84;4990261;28;20042;-32
2022/05/25 02:16:49;;;;;;;3.55;1.00;;;;;;;12.04;100.00;101180.56;4990832;28;20058;-27
2022/05/25 02:19:34;;;;;;;3.30;0.47;;;;;;;12.02;100.00;101175.28;4990827;28;20050;-29
2022/05/25 02:22:09;;;;;;;5.88;0.93;;;;;;;12.00;100.00;101179.50;4990137;28;20050;-31
2022/05/25 02:24:41;;;;;;;4.38;0.75;;;;;;;11.99;100.00;101184.25;4990865;28;20057;-29
2022/05/25 02:27:16;;;;;;;5.38;0.77;;;;;;;11.98;100.00;101179.84;4990731;28;20045;-31
2022/05/25 02:29:47;;;;;;;5.40;1.20;;;;;;;11.97;100.00;101182.94;4988890;28;20058;-36
2022/05/25 02:32:21;;;;;;;6.35;0.80;;;;;;;11.97;100.00;101180.97;4993016;28;20053;-33
2022/05/25 02:34:51;;;;;;;3.45;0.80;;;;;;;11.97;100.00;101183.75;4994679;28;20042;-30
2022/05/25 02:37:23;;;;;;;5.57;1.15;;;;;;;11.99;100.00;101184.25;4993733;28;20066;-31
2022/05/25 02:39:53;;;;;;;5.95;0.70;;;;;;;11.99;100.00;101183.47;4994512;28;20046;-30
2022/05/25 02:42:21;;;;;;;4.32;0.93;;;;;;;11.99;100.00;101186.25;4993769;28;20787;-33
2022/05/25 02:44:50;;;;;;;5.72;0.80;;;;;;;12.01;100.00;101179.19;4994358;28;20107;-37
2022/05/25 02:47:20;;;;;;;6.10;1.20;;;;;;;12.01;100.00;101187.59;4994305;28;20054;-31
2022/05/25 02:49:47;;;;;;;7.82;1.10;;;;;;;12.00;100.00;101182.31;4993490;28;20414;-28
2022/05/25 02:52:15;;;;;;;6.20;0.80;;;;;;;12.00;100.00;101187.88;4994142;28;20129;-28
2022/05/25 02:54:43;;;;;;;5.32;0.80;;;;;;;12.00;100.00;101185.94;4994351;28;20046;-33
2022/05/25 02:57:11;;;;;;;3.55;0.70;;;;;;;12.00;100.00;101187.88;4993454;28;20081;-35
2022/05/25 02:59:39;;;;;;;5.22;0.80;;;;;;;11.99;100.00;101187.06;4994216;28;20034;-30
2022/05/25 03:02:09;;;;;;;3.33;0.90;;;;;;;11.98;100.00;101185.44;4994856;28;20051;-29
2022/05/25 03:04:40;;;;;;;7.20;1.05;;;;;;;11.97;100.00;101191.31;4993189;28;20065;-29
2022/05/25 03:07:08;;;;;;;6.60;1.30;;;;;;;11.97;100.00;101196.91;4994119;28;20407;-28
2022/05/25 03:09:37;;;;;;;7.45;0.95;;;;;;;11.96;100.00;101190.47;4993964;28;20057;-33
2022/05/25 03:12:06;;;;;;;6.40;1.00;;;;;;;11.99;100.00;101197.44;4993129;28;20057;-30
2022/05/25 03:14:34;;;;;;;5.80;1.20;;;;;;;11.98;100.00;101196.63;4993046;28;20468;-34
2022/05/25 03:17:08;;;;;;;6.00;0.82;;;;;;;11.99;100.00;101195.44;4991922;28;20062;-33
2022/05/25 03:19:36;;;;;;;6.85;1.00;;;;;;;11.98;100.00;101199.41;4993142;28;20046;-34
2022/05/25 03:22:06;;;;;;;3.88;1.00;;;;;;;11.98;100.00;101202.22;4992210;28;20047;-28
2022/05/25 03:24:34;;;;;;;6.15;1.05;;;;;;;11.97;100.00;101199.72;4991520;28;20065;-30
2022/05/25 03:27:01;;;;;;;5.88;0.93;;;;;;;11.96;100.00;101201.66;4992601;28;20061;-29
2022/05/25 03:29:30;;;;;;;5.00;0.80;;;;;;;11.95;100.00;101199.16;4993319;28;20408;-34
2022/05/25 03:31:59;;;;;;;4.07;0.80;;;;;;;11.94;100.00;101209.53;4992240;28;20054;-29
2022/05/25 03:34:26;;;;;;;3.10;0.85;;;;;;;11.96;100.00;101207.25;4992815;28;20057;-35
2022/05/25 03:36:55;;;;;;;5.57;0.80;;;;;;;11.96;100.00;101206.44;4992457;28;20520;-32
2022/05/25 03:39:28;;;;;;;4.18;0.90;;;;;;;11.97;100.00;101216.50;4991616;28;20042;-37
2022/05/25 03:41:57;;;;;;;4.97;0.90;;;;;;;11.97;100.00;101213.69;4993162;28;20435;-32
2022/05/25 03:44:25;;;;;;;6.45;1.00;;;;;;;11.97;100.00;101217.31;4991651;28;20057;-30
2022/05/25 03:46:54;;;;;;;3.25;1.13;;;;;;;11.99;100.00;101217.81;4992319;28;20053;-30
2022/05/25 03:49:21;;;;;;;6.00;0.90;;;;;;;12.00;100.00;101208.31;4992932;28;20050;-32
2022/05/25 03:51:50;;;;;;;5.72;1.00;;;;;;;12.01;100.00;101209.97;4993123;28;20126;-29
2022/05/25 03:54:18;;;;;;;6.85;1.00;;;;;;;12.03;100.00;101209.66;4992290;28;20054;-29
2022/05/25 03:56:47;;;;;;;5.93;0.80;;;;;;;12.01;100.00;101215.56;4992872;28;20488;-34
2022/05/25 03:59:15;;;;;;;4.07;1.00;;;;;;;12.01;100.00;101209.97;4991689;28;20042;-34
2022/05/25 04:01:43;;;;;;;7.80;0.88;;;;;;;12.02;100.00;101206.03;4992355;28;20034;-26
2022/05/25 04:04:11;;;;;;;3.70;0.80;;;;;;;12.03;100.00;101213.31;4992836;28;20050;-33
2022/05/25 04:06:39;;;;;;;4.60;0.95;;;;;;;12.04;100.00;101219.72;4991995;28;20097;-26
2022/05/25 04:09:09;;;;;;;5.82;1.20;;;;;;;12.06;100.00;101214.66;4992666;28;20561;-31
2022/05/25 04:11:37;;;;;;;4.85;0.70;;;;;;;12.08;100.00;101216.03;4993108;28;20498;-29
2022/05/25 04:14:06;;;;;;;5.47;1.00;;;;;;;12.10;100.00;101209.31;4988690;28;20045;-30
2022/05/25 04:16:34;;;;;;;2.60;0.70;;;;;;;12.08;100.00;101202.06;4992480;28;20057;-34
2022/05/25 04:19:02;;;;;;;3.58;0.60;;;;;;;12.12;100.00;101201.44;4992926;28;20084;-35
2022/05/25 04:21:30;;;;;;;3.38;0.80;;;;;;;12.16;100.00;101203.34;4991783;28;20050;-32
2022/05/25 04:23:58;;;;;;;5.35;0.75;;;;;;;12.18;100.00;101201.09;4992243;28;20080;-29
2022/05/25 04:26:26;;;;;;;5.20;0.93;;;;;;;12.21;100.00;101203.25;4992762;28;20042;-29
2022/05/25 04:28:53;;;;;;;3.15;0.80;;;;;;;12.23;100.00;101203.78;4987787;28;20038;-28
2022/05/25 04:31:22;;;;;;;2.58;0.60;;;;;;;12.27;100.00;101192.84;4992491;28;20046;-29
2022/05/25 04:33:50;;;;;;;3.67;0.82;;;;;;;12.28;100.00;101203.72;4992278;28;20103;-31
2022/05/25 04:36:22;;;;;;;6.30;0.90;;;;;;;12.30;100.00;101198.66;4991322;28;20043;-31
2022/05/25 04:38:50;;;;;;;4.40;1.10;;;;;;;12.32;100.00;101202.00;4992156;28;20061;-24
2022/05/25 04:41:18;;;;;;;6.20;1.00;;;;;;;12.37;100.00;101195.50;4991955;28;20539;-30
2022/05/25 04:43:45;;;;;;;2.55;0.60;;;;;;;12.39;100.00;101196.00;4989871;28;20046;-33
2022/05/25 04:46:14;;;;;;;3.60;0.80;;;;;;;12.41;100.00;101188.97;4992091;28;20056;-30
2022/05/25 04:48:44;;;;;;;3.08;0.82;;;;;;;12.46;100.00;101198.41;4991055;28;20053;-30
2022/05/25 04:51:14;;;;;;;2.95;0.80;;;;;;;12.47;100.00;101202.88;4991818;28;20046;-32
2022/05/25 04:53:43;;;;;;;3.55;0.80;;;;;;;12.48;100.00;101198.94;4979519;28;20043;-27
2022/05/25 04:58:56;;;;;;;6.75;0.90;;;;;;;12.50;100.00;101197.53;4991356;28;20042;-29
2022/05/25 05:01:23;;;;;;;7.18;1.10;;;;;;;12.51;100.00;101199.19;4990768;28;20054;-31
2022/05/25 05:03:58;;;;;;;3.33;0.70;;;;;;;12.55;100.00;101208.66;4990311;28;20101;-26
2022/05/25 05:06:26;;;;;;;2.97;0.63;;;;;;;12.59;100.00;101206.88;4991388;28;20416;-30
2022/05/25 05:08:54;;;;;;;4.22;1.20;;;;;;;12.63;100.00;101212.69;4980366;28;20053;-28
2022/05/25 05:11:22;;;;;;;4.53;0.80;;;;;;;12.67;100.00;101208.16;4990727;28;20042;-29
2022/05/25 05:13:49;;;;;;;4.28;0.80;;;;;;;12.68;100.00;101216.25;4991294;28;20133;-25
2022/05/25 05:16:18;;;;;;;3.25;0.80;;;;;;;12.72;100.00;101208.91;4991122;28;20101;-34
2022/05/25 05:18:53;;;;;;;4.55;0.90;;;;;;;12.77;100.00;101210.81;4986481;28;20057;-28
2022/05/25 05:21:42;;;;;;;3.70;0.88;;;;;;;12.81;100.00;101211.00;4990756;28;20058;-30
2022/05/25 05:24:10;;;;;;;3.00;0.80;;;;;;;12.82;100.00;101210.69;4990239;28;20068;-31
2022/05/25 05:26:38;;;;;;;4.28;0.95;;;;;;;12.83;100.00;101211.53;4991386;28;20051;-33
2022/05/25 05:29:05;;;;;;;4.40;0.98;;;;;;;12.87;100.00;101212.59;4991466;28;20061;-31
2022/05/25 05:31:33;;;;;;;3.28;0.80;;;;;;;12.88;100.00;101215.09;4990816;28;20061;-27
2022/05/25 05:34:01;;;;;;;5.25;1.23;;;;;;;12.92;100.00;101218.13;4990084;28;20092;-26
2022/05/25 05:36:31;;;;;;;5.65;1.10;;;;;;;12.96;100.00;101214.41;4991512;28;20066;-28
2022/05/25 05:39:04;;;;;;;2.95;0.80;;;;;;;13.00;100.00;101212.63;4990313;28;20057;-33
2022/05/25 05:41:36;;;;;;;3.85;0.82;;;;;;;13.05;100.00;101226.56;4991367;28;20046;-33
2022/05/25 05:44:07;;;;;;;4.10;1.05;;;;;;;13.11;100.00;101227.31;4991306;28;20060;-34
2022/05/25 05:46:38;;;;;;;6.25;1.35;;;;;;;13.18;100.00;101218.53;4988265;28;20051;-30
2022/05/25 05:49:06;;;;;;;4.10;0.97;;;;;;;13.23;100.00;101222.06;4985577;28;20054;-33
2022/05/25 05:51:35;;;;;;;3.08;0.73;;;;;;;13.29;100.00;101225.59;4989375;28;20054;-25
2022/05/25 05:54:05;;;;;;;5.05;1.13;;;;;;;13.34;100.00;101226.34;4988227;28;20563;-29
2022/05/25 05:56:33;;;;;;;5.00;1.00;;;;;;;13.37;100.00;101225.75;4989859;28;20514;-31
2022/05/25 05:59:02;;;;;;;4.20;0.90;;;;;;;13.44;100.00;101228.13;4988830;28;20556;-29
2022/05/25 06:01:30;;;;;;;10.75;1.52;;;;;;;13.48;100.00;101228.34;4989927;28;20050;-31
2022/05/25 06:03:59;;;;;;;4.22;1.00;;;;;;;13.49;100.00;101225.22;4989647;28;20060;-33
2022/05/25 06:06:27;;;;;;;3.45;1.10;;;;;;;13.54;100.00;101236.34;4989993;28;20050;-37
2022/05/25 06:08:56;;;;;;;5.90;1.08;;;;;;;13.57;100.00;101240.50;4993501;28;20568;-31
2022/05/25 06:11:25;;;;;;;5.07;1.42;;;;;;;13.65;100.00;101232.19;4993786;28;20069;-36
2022/05/25 06:13:53;;;;;;;6.95;1.20;;;;;;;13.72;100.00;101234.59;4993106;28;20050;-36
2022/05/25 06:21:56;;;;;;;4.63;1.52;;;;;;;13.92;100.00;101233.34;4992845;28;20121;-25
2022/05/25 06:24:24;;;;;;;3.90;1.10;;;;;;;14.04;100.00;101234.47;4994000;28;20062;-31
2022/05/25 06:26:54;;;;;;;4.88;0.88;;;;;;;14.20;100.00;101242.53;4993236;28;20061;-29
2022/05/25 06:29:22;;;;;;;4.97;0.95;;;;;;;14.28;100.00;101248.25;4992805;28;20046;-32
2022/05/25 06:31:50;;;;;;;4.20;1.00;;;;;;;14.36;100.00;101250.34;4993332;28;20057;-33
2022/05/25 06:34:18;;;;;;;4.82;1.10;;;;;;;14.37;100.00;101252.00;4992655;28;20058;-35
2022/05/25 06:36:48;;;;;;;7.32;1.33;;;;;;;14.37;100.00;101254.81;4992650;28;20492;-30
2022/05/25 06:39:16;;;;;;;5.85;1.25;;;;;;;14.40;100.00;101257.00;4986058;28;20536;-31
2022/05/25 06:41:44;;;;;;;6.10;1.23;;;;;;;14.46;100.00;101254.91;4992249;28;20050;-32
2022/05/25 06:44:13;;;;;;;5.60;1.30;;;;;;;14.55;100.00;101263.44;4993275;28;20046;-33
2022/05/25 06:46:41;;;;;;;6.80;1.25;;;;;;;14.53;100.00;101255.31;4993138;28;20046;-28
2022/05/25 06:49:08;;;;;;;5.70;1.10;;;;;;;14.50;100.00;101263.53;4991760;28;20522;-33
2022/05/25 06:51:37;;;;;;;3.10;0.82;;;;;;;14.58;100.00;101252.41;4992205;28;20050;-33
2022/05/25 06:54:08;;;;;;;6.32;1.10;;;;;;;14.82;100.00;101257.69;4993557;28;20062;-29
2022/05/25 06:56:35;;;;;;;3.50;0.80;;;;;;;15.06;100.00;101265.81;4992769;28;20056;-31
2022/05/25 06:59:04;;;;;;;5.55;1.30;;;;;;;15.23;100.00;101268.75;4994085;28;20062;-32
2022/05/25 07:01:33;;;;;;;4.20;1.10;;;;;;;15.43;100.00;101267.38;4993976;28;20038;-34
2022/05/25 07:04:00;;;;;;;3.88;0.80;;;;;;;15.58;100.00;101275.47;4993047;28;20046;-29
2022/05/25 07:06:28;;;;;;;4.65;1.20;;;;;;;15.65;100.00;101277.81;4993674;28;20054;-36
2022/05/25 07:08:56;;;;;;;5.38;1.15;;;;;;;15.64;100.00;101273.31;4993465;28;20042;-35
2022/05/25 07:11:24;;;;;;;4.70;1.10;;;;;;;15.70;100.00;101277.66;4993144;28;20058;-26
2022/05/25 07:13:54;;;;;;;4.90;1.30;;;;;;;15.72;100.00;101283.81;4993784;28;20052;-29
2022/05/25 07:16:22;;;;;;;5.05;1.17;;;;;;;15.72;100.00;101290.25;4987985;28;20098;-29
2022/05/25 07:18:52;;;;;;;5.03;1.40;;;;;;;15.69;100.00;101288.09;4993146;28;20050;-32
2022/05/25 07:21:21;;;;;;;9.38;1.30;;;;;;;15.68;100.00;101279.97;4993779;28;20070;-31
2022/05/25 07:23:51;;;;;;;6.97;1.20;;;;;;;15.74;100.00;101278.69;4992392;28;20109;-29
2022/05/25 07:26:21;;;;;;;8.80;1.25;;;;;;;15.84;100.00;101278.38;4993486;28;20223;-29
2022/05/25 07:28:50;;;;;;;7.75;1.10;;;;;;;15.95;100.00;101288.22;4993610;28;20527;-32
2022/05/25 07:31:22;;;;;;;6.85;1.30;;;;;;;15.99;100.00;101285.56;4992440;28;20054;-27
2022/05/25 07:33:56;;;;;;;6.88;1.02;;;;;;;16.03;100.00;101284.59;4983399;28;20488;-37
2022/05/25 07:36:25;;;;;;;6.45;1.40;;;;;;;16.05;100.00;101279.47;4993429;28;20078;-29
2022/05/25 07:38:55;;;;;;;7.18;1.27;;;;;;;16.23;100.00;101291.59;4992016;28;20051;-32
2022/05/25 07:41:24;;;;;;;5.90;1.20;;;;;;;16.32;100.00;101288.84;4993232;28;20093;-31
2022/05/25 07:43:57;;;;;;;5.63;1.00;;;;;;;16.35;100.00;101299.44;4992999;28;20054;-35
2022/05/25 07:46:27;;;;;;;6.57;1.15;;;;;;;16.33;100.00;101299.78;4991252;28;20448;-34
2022/05/25 07:48:56;;;;;;;8.07;1.20;;;;;;;16.35;100.00;101286.19;4993035;28;20042;-31
2022/05/25 07:51:25;;;;;;;5.38;1.13;;;;;;;16.36;100.00;101295.47;4991805;28;20368;-33
2022/05/25 07:53:58;;;;;;;5.03;1.20;;;;;;;16.32;100.00;101289.66;4991795;28;20337;-32
2022/05/25 07:56:29;;;;;;;5.93;1.08;;;;;;;16.23;100.00;101299.22;4992589;28;20097;-30
2022/05/25 07:59:00;;;;;;;7.30;1.20;;;;;;;16.26;100.00;101298.59;4992659;28;20047;-31
2022/05/25 08:07:07;;;;;;;6.20;1.38;;;;;;;16.63;100.00;101294.34;4990544;28;20045;-37
2022/05/25 08:09:35;;;;;;;5.68;1.10;;;;;;;16.95;100.00;101287.44;4992467;28;20046;-30
2022/05/25 08:12:06;;;;;;;4.78;1.00;;;;;;;17.21;100.00;101293.88;4992669;28;20496;-29
2022/05/25 08:14:34;;;;;;;5.43;1.13;;;;;;;17.31;100.00;101292.72;4990968;28;20144;-35
2022/05/25 08:17:02;;;;;;;5.60;1.00;;;;;;;17.47;100.00;101291.88;5006307;28;20046;-37
2022/05/25 08:19:31;;;;;;;6.03;1.42;;;;;;;17.70;100.00;101295.31;4992547;28;20050;-28
2022/05/25 08:21:59;;;;;;;4.65;0.93;;;;;;;17.85;98.67;101291.94;4991916;28;20670;-32
2022/05/25 08:24:29;;;;;;;5.43;1.73;;;;;;;18.00;97.36;101299.03;4992115;28;20043;-28
2022/05/25 08:27:04;;;;;;;5.00;1.05;;;;;;;17.96;96.65;101303.72;4991708;28;20049;-28
2022/05/25 08:29:32;;;;;;;6.93;1.00;;;;;;;17.84;96.36;101300.75;4991642;28;20050;-30
2022/05/25 08:32:00;;;;;;;5.43;1.13;;;;;;;17.73;97.07;101302.28;4988532;28;20056;-27
2022/05/25 08:34:28;;;;;;;7.10;1.40;;;;;;;17.73;98.09;101308.78;4991722;28;20050;-28
2022/05/25 08:36:58;;;;;;;7.78;1.40;;;;;;;17.86;98.07;101304.91;4992355;28;20046;-28
2022/05/25 08:39:25;;;;;;;9.23;1.63;;;;;;;17.73;97.26;101305.94;4991955;28;20066;-30
2022/05/25 08:41:56;;;;;;;7.88;1.77;;;;;;;17.72;97.46;101306.28;4990599;28;20035;-27
2022/05/25 08:44:25;;;;;;;8.02;1.55;;;;;;;17.65;97.40;101303.97;4991880;28;20058;-29
2022/05/25 08:46:56;;;;;;;7.28;1.60;;;;;;;17.53;97.00;101329.22;4990948;28;20133;-32
2022/05/25 08:49:26;;;;;;;6.45;1.42;;;;;;;17.40;97.76;101291.53;4989513;28;20496;-29
2022/05/25 08:51:57;;;;;;;8.38;1.95;;;;;;;17.36;99.37;101306.66;4989533;28;20039;-28
2022/05/25 08:54:28;;;;;;;8.48;1.80;;;;;;;17.38;100.00;101322.09;4991565;28;20046;-33
2022/05/25 08:57:01;;;;;;;8.23;1.77;;;;;;;17.30;100.00;101317.28;4990858;28;20034;-29
2022/05/25 08:59:33;;;;;;;5.95;1.30;;;;;;;17.28;100.00;101302.69;4991973;28;20460;-37
2022/05/25 09:02:05;;;;;;;10.35;2.17;;;;;;;17.29;100.00;101304.34;4991159;28;20046;-28
2022/05/25 09:04:37;;;;;;;;;;;;;;;17.13;98.28;101306.84;4992696;28;20133;-29
2022/05/25 09:07:14;;;;;;;5.25;1.25;;;;;;;17.05;100.00;101302.03;4991687;28;19926;-26
2022/05/25 09:09:46;;;;;;;5.35;1.30;;;;;;;17.12;100.00;101315.63;4991307;28;20056;-30
2022/05/25 09:12:19;;;;;;;5.40;1.50;;;;;;;17.25;100.00;101306.16;4991857;28;20050;-32
2022/05/25 09:14:52;;;;;;;6.20;1.52;;;;;;;17.47;99.72;101308.78;4991605;28;20054;-28
2022/05/25 09:17:25;;;;;;;6.35;1.48;;;;;;;17.56;97.89;101308.78;4990754;28;20066;-30
2022/05/25 09:19:53;;;;;;;5.97;1.70;;;;;;;17.58;97.70;101312.09;4991577;28;20054;-28
2022/05/25 09:22:24;;;;;;;8.90;1.50;;;;;;;17.60;97.12;101303.28;4980650;28;20050;-27
2022/05/25 09:24:57;;;;;;;7.10;1.52;;;;;;;17.71;97.40;101313.09;4980134;28;20050;-33
2022/05/25 09:27:31;;;;;;;4.97;1.42;;;;;;;17.78;95.08;101310.59;4991360;28;20038;-30
2022/05/25 09:30:02;;;;;;;6.95;1.40;;;;;;;18.02;96.21;101321.28;4990718;28;20053;-33
2022/05/25 09:32:39;;;;;;;5.80;1.33;;;;;;;18.17;94.46;101315.91;4991467;28;20042;-35
2022/05/25 09:35:11;;;;;;;7.30;1.55;;;;;;;18.27;93.75;101319.50;4991651;28;20061;-29
2022/05/25 09:37:47;;;;;;;7.07;1.60;;;;;;;18.10;90.10;101324.06;4990679;28;20052;-37
2022/05/25 09:40:25;;;;;;;7.68;1.67;;;;;;;18.07;90.73;101324.75;4991593;28;20052;-33
2022/05/25 09:42:57;;;;;;;7.25;1.10;;;;;;;18.34;91.43;101331.13;4991136;28;20088;-32
2022/05/25 09:45:30;;;;;;;7.00;1.30;;;;;;;18.57;89.51;101329.66;4990372;28;20072;-28
2022/05/25 09:47:58;;;;;;;4.90;1.10;;;;;;;18.54;88.50;101324.69;4991318;28;20054;-29
2022/05/25 09:50:32;;;;;;;7.55;1.40;;;;;;;18.76;88.58;101332.88;4991037;28;20087;-30
2022/05/25 09:53:04;;;;;;;8.15;1.50;;;;;;;18.74;86.45;101326.75;4987192;28;20397;-34
2022/05/25 09:55:40;;;;;;;6.78;1.17;;;;;;;18.43;86.49;101324.22;4988474;28;20042;-28
2022/05/25 09:58:12;;;;;;;6.60;1.33;;;;;;;18.41;87.66;101323.75;4990674;28;20068;-28
2022/05/25 10:00:52;;;;;;;6.88;1.52;;;;;;;18.07;84.93;101335.22;4988003;28;20050;-28
2022/05/25 10:03:36;;;;;;;4.70;1.10;;;;;;;17.52;85.44;101339.66;4990688;28;20473;-28
2022/05/25 10:06:18;;;;;;;7.28;1.23;;;;;;;17.26;88.22;101333.22;4989086;28;20062;-38
2022/05/25 10:08:46;;;;;;;;;;;;;;;17.07;89.25;101335.53;4991420;28;20052;-28
2022/05/25 10:11:32;;;;;;;6.22;1.10;;;;;;;17.36;92.44;101335.72;4990822;28;19922;-28
2022/05/25 10:14:22;;;;;;;6.68;1.30;;;;;;;17.91;89.86;101329.31;4990078;28;20050;-33
2022/05/25 10:16:51;;;;;;;4.70;1.05;;;;;;;18.21;88.13;101333.81;4982033;28;20046;-36
2022/05/25 10:19:21;;;;;;;5.63;1.38;;;;;;;18.38;86.30;101327.28;4989859;28;20496;-33
2022/05/25 10:21:51;;;;;;;5.13;1.20;;;;;;;18.41;85.39;101331.41;4980530;28;20042;-28
2022/05/25 10:24:25;;;;;;;6.53;1.25;;;;;;;18.23;81.89;101345.59;4990766;28;20069;-28
2022/05/25 10:26:58;;;;;;;4.75;1.25;;;;;;;18.10;83.51;101332.56;4989945;28;20492;-28
2022/05/25 10:37:58;;;;;;;7.38;1.27;;;;;;;17.97;86.64;101329.97;4990788;28;20050;-36
2022/05/25 10:40:26;;;;;;;7.43;1.40;;;;;;;18.07;84.97;101327.56;4989810;28;20058;-27
2022/05/25 10:43:00;;;;;;;8.85;1.67;;;;;;;18.18;83.61;101330.88;4990378;28;20046;-31
2022/05/25 10:45:33;;;;;;;4.50;1.20;;;;;;;18.19;84.54;101336.16;4990789;28;20046;-31
2022/05/25 10:48:13;;;;;;;7.10;1.45;;;;;;;18.31;82.15;101349.56;4989975;28;20467;-40
2022/05/25 10:50:47;;;;;;;4.43;1.27;;;;;;;18.23;82.17;101325.84;4990992;28;20272;-28
2022/05/25 10:53:41;;;;;;;6.45;1.40;;;;;;;18.09;82.54;101332.88;4993485;28;20046;-30
2022/05/25 10:56:27;;;;;;;7.75;1.58;;;;;;;18.35;79.50;101332.78;4993673;28;20070;-28
2022/05/25 10:59:12;;;;;;;6.07;1.75;;;;;;;18.46;77.79;101331.22;4994230;28;20046;-28
2022/05/25 11:02:04;;;;;;;4.50;1.20;;;;;;;18.55;78.16;101337.66;4993211;28;20054;-31
2022/05/25 11:05:02;;;;;;;4.63;1.58;;;;;;;18.73;75.97;101344.06;4989528;28;20424;-29
2022/05/25 11:07:34;;;;;;;7.90;1.65;;;;;;;18.61;76.76;101336.28;4993166;28;20109;-28
2022/05/25 11:10:29;;;;;;;6.47;1.63;;;;;;;18.58;74.36;101348.28;4993555;28;20062;-31
2022/05/25 11:13:20;;;;;;;5.03;1.23;;;;;;;18.56;73.60;101336.47;4993564;28;20035;-28
2022/05/25 11:15:56;;;;;;;6.20;1.20;;;;;;;18.47;75.25;101342.16;4990662;28;20053;-34
2022/05/25 11:18:43;;;;;;;9.45;1.50;;;;;;;18.42;74.21;101336.72;4993681;28;20065;-28
2022/05/25 11:21:24;;;;;;;6.93;1.40;;;;;;;18.06;73.58;101330.72;4992999;28;20133;-30
2022/05/25 11:24:14;;;;;;;6.07;1.50;;;;;;;17.81;75.59;101344.59;4982662;28;20049;-31
2022/05/25 11:26:56;;;;;;;6.03;1.13;;;;;;;17.65;76.75;101334.19;4983048;28;20109;-28
2022/05/25 11:29:39;;;;;;;9.13;1.73;;;;;;;17.56;78.03;101351.13;4993666;28;20050;-29
2022/05/25 11:32:21;;;;;;;5.93;1.05;;;;;;;17.67;79.39;101343.16;4993942;28;20049;-28
2022/05/25 11:35:09;;;;;;;8.77;1.40;;;;;;;17.75;79.65;101350.78;4993487;28;20387;-35
2022/05/25 11:37:52;;;;;;;8.52;1.20;;;;;;;17.69;78.82;101343.66;4992919;28;20054;-28
2022/05/25 11:40:29;;;;;;;7.93;1.20;;;;;;;17.58;77.89;101355.22;4993529;28;20060;-28
2022/05/25 11:43:16;;;;;;;5.85;1.10;;;;;;;17.48;78.14;101340.66;4993734;28;20453;-38
2022/05/25 11:45:57;;;;;;;5.15;1.23;;;;;;;17.45;78.34;101338.50;4992622;28;20145;-37
2022/05/25 11:49:07;;;;;;;7.82;1.23;;;;;;;17.42;77.92;101348.47;4991247;28;20050;-27
2022/05/25 11:51:45;;;;;;;6.60;1.40;;;;;;;17.46;78.50;101363.56;4992353;28;20054;-29
2022/05/25 11:54:31;;;;;;;7.53;1.25;;;;;;;17.45;77.29;101353.44;4993246;28;20050;-38
2022/05/25 11:57:06;;;;;;;6.28;1.35;;;;;;;17.41;78.77;101351.59;4992538;28;20046;-30
2022/05/25 12:00:18;;;;;;;7.75;1.15;;;;;;;17.31;77.71;101366.91;4992422;28;20076;-37
2022/05/25 12:03:00;;;;;;;6.90;1.38;;;;;;;17.16;80.26;101350.47;4969040;28;20061;-33
2022/05/25 12:05:42;;;;;;;8.15;1.40;;;;;;;17.10;81.53;101344.16;4982644;28;20046;-33
2022/05/25 12:08:27;;;;;;;7.93;1.17;;;;;;;17.04;83.23;101353.94;4993061;28;20065;-28